createdAt,value
2018-07-31T00:00:26.693Z,65.50
2018-07-31T00:01:26.692Z,65.17
2018-07-31T00:02:26.691Z,65.47
2018-07-31T00:03:26.710Z,67.88
2018-07-31T00:04:26.697Z,67.52
2018-07-31T00:05:26.695Z,67.24
2018-07-31T00:06:26.690Z,66.94
2018-07-31T00:07:26.691Z,67.04
2018-07-31T00:08:26.693Z,67.11
2018-07-31T00:09:26.692Z,66.91
2018-07-31T00:10:26.692Z,67.30
2018-07-31T00:11:26.688Z,67.20
2018-07-31T00:12:26.687Z,67.40
2018-07-31T00:13:26.692Z,67.11
2018-07-31T00:14:26.688Z,67.69
2018-07-31T00:15:26.685Z,67.97
2018-07-31T00:16:26.686Z,68.46
2018-07-31T00:17:26.686Z,67.88
2018-07-31T00:18:26.684Z,68.55
2018-07-31T00:19:26.685Z,68.94
2018-07-31T00:20:26.684Z,68.84
2018-07-31T00:21:26.688Z,69.10
2018-07-31T00:22:26.683Z,70.20
2018-07-31T00:23:26.681Z,70.16
2018-07-31T00:24:26.682Z,70.26
2018-07-31T00:25:26.680Z,70.36
2018-07-31T00:26:26.680Z,70.54
2018-07-31T00:27:26.678Z,70.36
2018-07-31T00:28:26.679Z,69.58
2018-07-31T00:29:26.677Z,69.20
2018-07-31T00:30:26.678Z,68.81
2018-07-31T00:31:26.676Z,68.91
2018-07-31T00:32:26.674Z,69.68
2018-07-31T00:33:26.679Z,69.78
2018-07-31T00:34:26.704Z,70.16
2018-07-31T00:35:26.674Z,70.74
2018-07-31T00:36:26.673Z,70.45
2018-07-31T00:37:26.673Z,70.45
2018-07-31T00:38:26.672Z,70.74
2018-07-31T00:39:26.673Z,70.54
2018-07-31T00:40:26.670Z,70.36
2018-07-31T00:41:26.672Z,70.36
2018-07-31T00:42:26.668Z,69.97
2018-07-31T00:43:26.671Z,70.06
2018-07-31T00:44:26.667Z,70.26
2018-07-31T00:45:26.668Z,69.97
2018-07-31T00:46:26.665Z,69.49
2018-07-31T00:47:26.665Z,69.68
2018-07-31T00:48:26.663Z,69.58
2018-07-31T00:49:26.664Z,69.29
2018-07-31T00:50:26.665Z,69.68
2018-07-31T00:51:26.661Z,69.10
2018-07-31T00:52:26.658Z,70.45
2018-07-31T00:53:26.658Z,69.20
2018-07-31T00:54:26.663Z,69.20
2018-07-31T00:55:26.658Z,69.49
2018-07-31T00:56:26.657Z,69.58
2018-07-31T00:57:26.657Z,68.91
2018-07-31T00:58:26.657Z,68.81
2018-07-31T00:59:26.653Z,68.33
2018-07-31T01:00:26.653Z,69.00
2018-07-31T01:01:26.651Z,69.39
2018-07-31T01:02:26.651Z,68.62
2018-07-31T01:03:26.649Z,70.64
2018-07-31T01:04:26.652Z,70.74
2018-07-31T01:05:26.653Z,70.16
2018-07-31T01:06:26.645Z,69.49
2018-07-31T01:07:26.647Z,69.58
2018-07-31T01:08:26.646Z,69.58
2018-07-31T01:09:26.644Z,69.97
2018-07-31T01:10:26.643Z,70.26
2018-07-31T01:11:26.644Z,70.32
2018-07-31T01:12:26.652Z,70.70
2018-07-31T01:13:26.642Z,70.42
2018-07-31T01:14:26.647Z,70.13
2018-07-31T01:15:26.641Z,70.70
2018-07-31T01:16:26.654Z,70.32
2018-07-31T01:17:26.637Z,70.51
2018-07-31T01:18:26.635Z,70.61
2018-07-31T01:19:26.658Z,71.09
2018-07-31T01:20:26.634Z,71.09
2018-07-31T01:21:26.633Z,70.80
2018-07-31T01:22:26.633Z,71.19
2018-07-31T01:23:26.630Z,71.00
2018-07-31T01:24:26.630Z,71.15
2018-07-31T01:25:26.629Z,71.54
2018-07-31T01:26:26.629Z,71.38
2018-07-31T01:27:26.658Z,71.64
2018-07-31T01:28:26.629Z,71.48
2018-07-31T01:29:26.621Z,71.34
2018-07-31T01:30:26.623Z,71.28
2018-07-31T01:31:26.622Z,71.38
2018-07-31T01:32:26.627Z,71.86
2018-07-31T01:33:26.618Z,71.54
2018-07-31T01:34:26.619Z,71.38
2018-07-31T01:35:26.619Z,71.25
2018-07-31T01:36:26.616Z,71.28
2018-07-31T01:37:26.614Z,71.86
2018-07-31T01:38:26.613Z,71.38
2018-07-31T01:39:26.613Z,71.48
2018-07-31T01:40:26.614Z,72.02
2018-07-31T01:41:26.621Z,72.31
2018-07-31T01:42:26.614Z,71.92
2018-07-31T01:43:26.609Z,71.54
2018-07-31T01:44:26.605Z,72.02
2018-07-31T01:45:26.604Z,71.92
2018-07-31T01:46:26.603Z,71.54
2018-07-31T01:47:26.603Z,71.00
2018-07-31T01:48:26.603Z,70.42
2018-07-31T01:49:26.602Z,69.93
2018-07-31T01:50:26.604Z,69.90
2018-07-31T01:51:26.601Z,69.32
2018-07-31T01:52:26.598Z,69.51
2018-07-31T01:53:26.594Z,70.61
2018-07-31T01:54:26.595Z,70.90
2018-07-31T01:55:26.598Z,71.25
2018-07-31T01:56:26.592Z,71.25
2018-07-31T01:57:26.593Z,71.64
2018-07-31T01:58:26.594Z,71.73
2018-07-31T01:59:26.588Z,72.12
2018-07-31T02:00:26.592Z,72.50
2018-07-31T02:01:26.586Z,73.47
2018-07-31T02:02:26.586Z,73.75
2018-07-31T02:03:26.584Z,73.27
2018-07-31T02:04:26.585Z,73.47
2018-07-31T02:05:26.585Z,73.75
2018-07-31T02:06:26.580Z,74.05
2018-07-31T02:07:26.584Z,73.66
2018-07-31T02:08:26.575Z,74.14
2018-07-31T02:09:26.582Z,73.85
2018-07-31T02:10:26.579Z,73.95
2018-07-31T02:11:26.573Z,74.52
2018-07-31T02:12:26.571Z,74.14
2018-07-31T02:13:26.570Z,73.57
2018-07-31T02:14:26.570Z,73.47
2018-07-31T02:15:26.567Z,72.21
2018-07-31T02:16:26.569Z,72.21
2018-07-31T02:17:26.648Z,72.60
2018-07-31T02:18:26.563Z,73.27
2018-07-31T02:19:26.564Z,72.79
2018-07-31T02:20:26.559Z,72.99
2018-07-31T02:21:26.568Z,72.89
2018-07-31T02:22:26.557Z,73.08
2018-07-31T02:23:26.560Z,72.79
2018-07-31T02:24:26.553Z,73.57
2018-07-31T02:25:26.552Z,73.47
2018-07-31T02:26:26.554Z,73.27
2018-07-31T02:27:26.548Z,72.56
2018-07-31T02:28:26.647Z,73.66
2018-07-31T02:29:26.554Z,73.91
2018-07-31T02:30:26.551Z,74.40
2018-07-31T02:31:26.548Z,74.97
2018-07-31T02:32:26.541Z,74.68
2018-07-31T02:33:26.541Z,75.16
2018-07-31T02:34:26.543Z,75.74
2018-07-31T02:35:26.541Z,76.03
2018-07-31T02:36:26.534Z,76.03
2018-07-31T02:37:26.536Z,76.03
2018-07-31T02:38:26.533Z,75.65
2018-07-31T02:39:26.532Z,76.23
2018-07-31T02:40:26.529Z,75.55
2018-07-31T02:41:26.561Z,75.93
2018-07-31T02:42:26.535Z,75.16
2018-07-31T02:43:26.527Z,75.26
2018-07-31T02:44:26.527Z,75.55
2018-07-31T02:45:26.525Z,74.55
2018-07-31T02:46:26.524Z,74.84
2018-07-31T02:47:26.516Z,75.90
2018-07-31T02:48:26.519Z,75.99
2018-07-31T02:49:26.513Z,76.96
2018-07-31T02:50:26.526Z,77.25
2018-07-31T02:51:26.509Z,77.83
2018-07-31T02:52:26.518Z,77.25
2018-07-31T02:53:26.503Z,77.06
2018-07-31T02:54:26.503Z,76.86
2018-07-31T02:55:26.499Z,77.06
2018-07-31T02:56:26.500Z,77.34
2018-07-31T02:57:26.497Z,76.96
2018-07-31T02:58:26.494Z,76.96
2018-07-31T02:59:26.494Z,77.06
2018-07-31T03:00:26.494Z,77.34
2018-07-31T03:01:26.493Z,77.34
2018-07-31T03:02:26.486Z,77.53
2018-07-31T03:03:26.487Z,77.34
2018-07-31T03:04:26.487Z,77.15
2018-07-31T03:05:26.483Z,76.57
2018-07-31T03:06:26.478Z,76.09
2018-07-31T03:07:26.476Z,76.57
2018-07-31T03:08:26.474Z,76.57
2018-07-31T03:09:26.478Z,76.96
2018-07-31T03:10:26.473Z,76.67
2018-07-31T03:11:26.468Z,77.06
2018-07-31T03:12:26.466Z,76.96
2018-07-31T03:13:26.464Z,77.06
2018-07-31T03:14:26.463Z,77.53
2018-07-31T03:15:26.482Z,77.83
2018-07-31T03:16:26.459Z,78.02
2018-07-31T03:17:26.458Z,78.11
2018-07-31T03:18:26.459Z,79.17
2018-07-31T03:19:26.458Z,78.98
2018-07-31T03:20:26.453Z,79.66
2018-07-31T03:21:26.454Z,80.04
2018-07-31T03:22:26.448Z,80.33
2018-07-31T03:23:26.449Z,79.46
2018-07-31T03:24:26.442Z,79.56
2018-07-31T03:25:26.441Z,79.36
2018-07-31T03:26:26.440Z,79.46
2018-07-31T03:27:26.464Z,79.46
2018-07-31T03:28:26.434Z,79.85
2018-07-31T03:29:26.433Z,79.85
2018-07-31T03:30:26.435Z,80.23
2018-07-31T03:31:26.431Z,80.52
2018-07-31T03:32:26.427Z,80.33
2018-07-31T03:33:26.430Z,80.23
2018-07-31T03:34:26.424Z,80.81
2018-07-31T03:35:26.421Z,80.23
2018-07-31T03:36:26.423Z,80.71
2018-07-31T03:37:26.420Z,80.33
2018-07-31T03:38:26.431Z,80.23
2018-07-31T03:39:26.414Z,80.52
2018-07-31T03:40:26.413Z,80.29
2018-07-31T03:41:26.412Z,80.68
2018-07-31T03:42:26.407Z,80.68
2018-07-31T03:43:26.407Z,80.77
2018-07-31T03:44:26.404Z,80.19
2018-07-31T03:45:26.400Z,80.58
2018-07-31T03:46:26.423Z,80.58
2018-07-31T03:47:26.396Z,80.48
2018-07-31T03:48:26.394Z,81.16
2018-07-31T03:49:26.397Z,81.35
2018-07-31T03:50:26.393Z,81.45
2018-07-31T03:51:26.390Z,79.43
2018-07-31T03:52:26.393Z,78.75
2018-07-31T03:53:26.385Z,77.98
2018-07-31T03:54:26.382Z,76.96
2018-07-31T03:55:26.429Z,76.57
2018-07-31T03:56:26.490Z,76.53
2018-07-31T03:57:26.377Z,77.06
2018-07-31T03:58:26.374Z,77.83
2018-07-31T03:59:26.382Z,77.92
2018-07-31T04:00:26.376Z,78.31
2018-07-31T04:01:26.373Z,78.75
2018-07-31T04:02:26.365Z,79.46
2018-07-31T04:03:26.365Z,79.33
2018-07-31T04:04:26.361Z,79.23
2018-07-31T04:05:26.391Z,78.85
2018-07-31T04:06:26.362Z,78.85
2018-07-31T04:07:26.357Z,78.85
2018-07-31T04:08:26.354Z,78.36
2018-07-31T04:09:26.355Z,79.52
2018-07-31T04:10:26.352Z,79.23
2018-07-31T04:11:26.348Z,80.10
2018-07-31T04:12:26.345Z,79.71
2018-07-31T04:13:26.345Z,80.00
2018-07-31T04:14:26.342Z,80.10
2018-07-31T04:15:26.338Z,80.19
2018-07-31T04:16:26.337Z,80.87
2018-07-31T04:17:26.335Z,80.68
2018-07-31T04:18:26.333Z,80.48
2018-07-31T04:19:26.335Z,80.96
2018-07-31T04:20:26.331Z,80.87
2018-07-31T04:21:26.333Z,80.77
2018-07-31T04:22:26.326Z,80.77
2018-07-31T04:23:26.324Z,80.77
2018-07-31T04:24:26.321Z,80.87
2018-07-31T04:25:26.319Z,81.25
2018-07-31T04:26:26.317Z,81.73
2018-07-31T04:27:26.317Z,80.68
2018-07-31T04:28:26.312Z,81.01
2018-07-31T04:29:26.314Z,80.68
2018-07-31T04:30:26.307Z,80.81
2018-07-31T04:31:26.309Z,81.01
2018-07-31T04:32:26.307Z,80.87
2018-07-31T04:33:26.301Z,81.29
2018-07-31T04:34:26.304Z,80.96
2018-07-31T04:35:26.297Z,81.16
2018-07-31T04:36:26.324Z,80.52
2018-07-31T04:37:26.293Z,80.91
2018-07-31T04:38:26.322Z,81.77
2018-07-31T04:39:26.288Z,80.81
2018-07-31T04:40:26.295Z,78.44
2018-07-31T04:41:26.293Z,76.93
2018-07-31T04:42:26.353Z,76.75
2018-07-31T04:43:26.286Z,76.93
2018-07-31T04:44:26.307Z,75.97
2018-07-31T04:45:26.277Z,74.02
2018-07-31T04:46:26.276Z,72.22
2018-07-31T04:47:26.276Z,70.42
2018-07-31T04:48:26.275Z,68.43
2018-07-31T04:49:26.272Z,67.49
2018-07-31T04:50:26.282Z,66.08
2018-07-31T04:51:26.268Z,64.75
2018-07-31T04:52:26.268Z,64.37
2018-07-31T04:53:26.270Z,63.53
2018-07-31T04:54:26.281Z,63.14
2018-07-31T04:55:26.269Z,63.34
2018-07-31T04:56:26.267Z,63.04
2018-07-31T04:57:26.269Z,62.20
2018-07-31T04:58:26.276Z,61.14
2018-07-31T04:59:26.276Z,60.88
2018-07-31T05:00:26.275Z,60.39
2018-07-31T05:01:26.280Z,59.74
2018-07-31T05:02:26.273Z,59.38
2018-07-31T05:03:26.278Z,57.67
2018-07-31T05:04:26.334Z,57.11
2018-07-31T05:05:26.285Z,56.34
2018-07-31T05:06:26.290Z,55.65
2018-07-31T05:07:26.288Z,54.88
2018-07-31T05:08:26.290Z,54.68
2018-07-31T05:09:26.293Z,54.13
2018-07-31T05:10:26.295Z,53.45
2018-07-31T05:11:26.304Z,54.03
2018-07-31T05:12:26.302Z,53.35
2018-07-31T05:13:26.303Z,52.86
2018-07-31T05:14:26.309Z,52.89
2018-07-31T05:15:26.312Z,52.98
2018-07-31T05:16:26.319Z,53.08
2018-07-31T05:17:26.367Z,51.84
2018-07-31T05:18:26.380Z,51.36
2018-07-31T05:19:26.329Z,51.17
2018-07-31T05:20:26.329Z,50.97
2018-07-31T05:21:26.331Z,52.11
2018-07-31T05:22:26.340Z,52.01
2018-07-31T05:23:26.339Z,52.79
2018-07-31T05:24:26.340Z,53.54
2018-07-31T05:25:26.341Z,53.54
2018-07-31T05:26:26.347Z,54.13
2018-07-31T05:27:26.350Z,54.29
2018-07-31T05:28:26.351Z,54.66
2018-07-31T05:29:26.352Z,55.73
2018-07-31T05:30:26.358Z,56.18
2018-07-31T05:31:26.358Z,57.34
2018-07-31T05:32:26.425Z,56.86
2018-07-31T05:33:26.360Z,56.86
2018-07-31T05:34:26.362Z,57.51
2018-07-31T05:35:26.369Z,58.29
2018-07-31T05:36:26.370Z,58.58
2018-07-31T05:37:26.367Z,58.09
2018-07-31T05:38:26.371Z,58.58
2018-07-31T05:39:26.399Z,59.26
2018-07-31T05:40:26.371Z,58.36
2018-07-31T05:41:26.372Z,59.33
2018-07-31T05:42:26.376Z,59.66
2018-07-31T05:43:26.378Z,60.82
2018-07-31T05:44:26.377Z,61.27
2018-07-31T05:45:26.378Z,62.43
2018-07-31T05:46:26.385Z,63.31
2018-07-31T05:47:26.397Z,62.56
2018-07-31T05:48:26.390Z,61.98
2018-07-31T05:49:26.384Z,61.30
2018-07-31T05:50:26.391Z,61.79
2018-07-31T05:51:26.385Z,60.82
2018-07-31T05:52:26.390Z,60.24
2018-07-31T05:53:26.389Z,60.52
2018-07-31T05:54:26.389Z,61.18
2018-07-31T05:55:26.391Z,62.53
2018-07-31T05:56:26.395Z,62.79
2018-07-31T05:57:26.403Z,63.24
2018-07-31T05:58:26.398Z,64.89
2018-07-31T05:59:26.393Z,65.27
2018-07-31T06:00:26.394Z,64.82
2018-07-31T06:01:26.394Z,65.79
2018-07-31T06:02:26.401Z,63.85
2018-07-31T06:03:26.429Z,63.11
2018-07-31T06:04:26.395Z,63.69
2018-07-31T06:05:26.398Z,63.34
2018-07-31T06:06:26.395Z,63.14
2018-07-31T06:07:26.404Z,63.24
2018-07-31T06:08:26.398Z,61.88
2018-07-31T06:09:26.424Z,61.91
2018-07-31T06:10:26.398Z,61.43
2018-07-31T06:11:26.453Z,61.52
2018-07-31T06:12:26.402Z,60.20
2018-07-31T06:13:26.401Z,60.58
2018-07-31T06:14:26.407Z,60.58
2018-07-31T06:15:26.405Z,59.71
2018-07-31T06:16:26.407Z,59.16
2018-07-31T06:17:26.404Z,59.16
2018-07-31T06:18:26.408Z,59.94
2018-07-31T06:19:26.405Z,59.74
2018-07-31T06:20:26.407Z,59.74
2018-07-31T06:21:26.406Z,59.45
2018-07-31T06:22:26.409Z,59.38
2018-07-31T06:23:26.414Z,58.31
2018-07-31T06:24:26.411Z,58.80
2018-07-31T06:25:26.412Z,58.03
2018-07-31T06:26:26.418Z,58.22
2018-07-31T06:27:26.413Z,58.61
2018-07-31T06:28:26.418Z,56.96
2018-07-31T06:29:26.417Z,57.64
2018-07-31T06:30:26.418Z,57.83
2018-07-31T06:31:26.419Z,57.22
2018-07-31T06:32:26.420Z,57.48
2018-07-31T06:33:26.422Z,57.78
2018-07-31T06:34:26.428Z,58.36
2018-07-31T06:35:26.423Z,59.42
2018-07-31T06:36:26.425Z,59.61
2018-07-31T06:37:26.425Z,58.36
2018-07-31T06:38:26.431Z,59.81
2018-07-31T06:39:26.429Z,59.42
2018-07-31T06:40:26.465Z,58.45
2018-07-31T06:41:26.432Z,59.45
2018-07-31T06:42:26.433Z,58.58
2018-07-31T06:43:26.484Z,58.09
2018-07-31T06:44:26.437Z,58.51
2018-07-31T06:45:26.435Z,57.93
2018-07-31T06:46:26.437Z,57.06
2018-07-31T06:47:26.443Z,56.67
2018-07-31T06:48:26.439Z,56.57
2018-07-31T06:49:26.442Z,56.86
2018-07-31T06:50:26.442Z,57.18
2018-07-31T06:51:26.448Z,56.50
2018-07-31T06:52:26.451Z,56.50
2018-07-31T06:53:26.450Z,55.92
2018-07-31T06:54:26.447Z,56.60
2018-07-31T06:55:26.450Z,56.50
2018-07-31T06:56:26.449Z,56.30
2018-07-31T06:57:26.451Z,56.60
2018-07-31T06:58:26.460Z,56.34
2018-07-31T06:59:26.457Z,56.34
2018-07-31T07:00:26.456Z,55.46
2018-07-31T07:01:26.458Z,55.17
2018-07-31T07:02:26.462Z,55.46
2018-07-31T07:03:26.460Z,55.07
2018-07-31T07:04:26.462Z,54.39
2018-07-31T07:05:26.466Z,53.71
2018-07-31T07:06:26.466Z,53.54
2018-07-31T07:07:26.467Z,53.52
2018-07-31T07:08:26.474Z,53.42
2018-07-31T07:09:26.472Z,53.45
2018-07-31T07:10:26.474Z,53.64
2018-07-31T07:11:26.476Z,53.25
2018-07-31T07:12:26.480Z,53.45
2018-07-31T07:13:26.480Z,52.47
2018-07-31T07:14:26.484Z,52.76
2018-07-31T07:15:26.518Z,53.47
2018-07-31T07:16:26.485Z,53.25
2018-07-31T07:17:26.490Z,52.98
2018-07-31T07:18:26.490Z,52.59
2018-07-31T07:19:26.491Z,51.82
2018-07-31T07:20:26.499Z,51.84
2018-07-31T07:21:26.495Z,52.04
2018-07-31T07:22:26.501Z,51.94
2018-07-31T07:23:26.509Z,52.04
2018-07-31T07:24:26.511Z,51.14
2018-07-31T07:25:26.505Z,52.62
2018-07-31T07:26:26.510Z,52.92
2018-07-31T07:27:26.510Z,53.50
2018-07-31T07:28:26.511Z,52.62
2018-07-31T07:29:26.513Z,51.87
2018-07-31T07:30:26.517Z,51.55
2018-07-31T07:31:26.520Z,52.16
2018-07-31T07:32:26.522Z,51.58
2018-07-31T07:33:26.526Z,51.58
2018-07-31T07:34:26.548Z,51.48
2018-07-31T07:35:26.538Z,51.99
2018-07-31T07:36:26.532Z,51.99
2018-07-31T07:37:26.548Z,51.41
2018-07-31T07:38:26.543Z,50.63
2018-07-31T07:39:26.544Z,51.02
2018-07-31T07:40:26.543Z,49.27
2018-07-31T07:41:26.550Z,51.09
2018-07-31T07:42:26.551Z,50.90
2018-07-31T07:43:26.552Z,51.19
2018-07-31T07:44:26.555Z,51.29
2018-07-31T07:45:26.557Z,50.60
2018-07-31T07:46:26.562Z,51.02
2018-07-31T07:47:26.564Z,50.04
2018-07-31T07:48:26.608Z,50.53
2018-07-31T07:49:26.576Z,50.43
2018-07-31T07:50:26.572Z,50.24
2018-07-31T07:51:26.575Z,48.02
2018-07-31T07:52:26.576Z,48.80
2018-07-31T07:53:26.587Z,48.61
2018-07-31T07:54:26.587Z,48.32
2018-07-31T07:55:26.593Z,47.92
2018-07-31T07:56:26.595Z,47.07
2018-07-31T07:57:26.594Z,47.07
2018-07-31T07:58:26.598Z,46.20
2018-07-31T07:59:26.600Z,44.05
2018-07-31T08:00:26.616Z,45.22
2018-07-31T08:01:26.606Z,44.54
2018-07-31T08:02:26.609Z,45.61
2018-07-31T08:03:26.613Z,44.27
2018-07-31T08:04:26.616Z,44.76
2018-07-31T08:05:26.621Z,44.66
2018-07-31T08:06:26.623Z,46.22
2018-07-31T08:07:26.633Z,46.02
2018-07-31T08:08:26.630Z,46.22
2018-07-31T08:09:26.634Z,46.41
2018-07-31T08:10:26.645Z,46.24
2018-07-31T08:11:26.641Z,46.83
2018-07-31T08:12:26.644Z,46.24
2018-07-31T08:13:26.649Z,45.44
2018-07-31T08:14:26.664Z,45.81
2018-07-31T08:15:26.660Z,45.92
2018-07-31T08:16:26.665Z,45.54
2018-07-31T08:17:26.666Z,45.92
2018-07-31T08:18:26.666Z,46.22
2018-07-31T08:19:26.669Z,46.22
2018-07-31T08:20:26.708Z,46.20
2018-07-31T08:21:26.678Z,45.81
2018-07-31T08:22:26.682Z,46.41
2018-07-31T08:23:26.753Z,46.30
2018-07-31T08:24:26.691Z,45.92
2018-07-31T08:25:26.693Z,46.22
2018-07-31T08:26:26.698Z,45.15
2018-07-31T08:27:26.702Z,43.78
2018-07-31T08:28:26.704Z,43.12
2018-07-31T08:29:26.707Z,41.85
2018-07-31T08:30:26.711Z,43.32
2018-07-31T08:31:26.716Z,43.80
2018-07-31T08:32:26.719Z,42.54
2018-07-31T08:33:26.729Z,42.55
2018-07-31T08:34:26.780Z,42.46
2018-07-31T08:35:26.738Z,42.55
2018-07-31T08:36:26.734Z,42.38
2018-07-31T08:37:26.744Z,42.58
2018-07-31T08:38:26.748Z,42.38
2018-07-31T08:39:26.748Z,41.99
2018-07-31T08:40:26.756Z,42.38
2018-07-31T08:41:26.798Z,42.69
2018-07-31T08:42:26.762Z,42.60
2018-07-31T08:43:26.785Z,42.50
2018-07-31T08:44:26.768Z,43.28
2018-07-31T08:45:26.772Z,41.93
2018-07-31T08:46:26.781Z,42.21
2018-07-31T08:47:26.787Z,41.91
2018-07-31T08:48:26.785Z,42.03
2018-07-31T08:49:26.789Z,41.15
2018-07-31T08:50:26.796Z,41.93
2018-07-31T08:51:26.805Z,42.03
2018-07-31T08:52:26.805Z,42.61
2018-07-31T08:53:26.810Z,41.74
2018-07-31T08:54:26.817Z,41.46
2018-07-31T08:55:26.817Z,40.76
2018-07-31T08:56:26.820Z,40.09
2018-07-31T08:57:26.830Z,39.51
2018-07-31T08:58:26.836Z,40.29
2018-07-31T08:59:26.837Z,40.78
2018-07-31T09:00:26.848Z,41.46
2018-07-31T09:01:26.844Z,40.11
2018-07-31T09:02:26.849Z,40.11
2018-07-31T09:03:26.854Z,39.62
2018-07-31T09:04:26.858Z,40.80
2018-07-31T09:05:26.863Z,39.33
2018-07-31T09:06:26.875Z,39.23
2018-07-31T09:07:26.872Z,39.53
2018-07-31T09:08:26.986Z,39.33
2018-07-31T09:09:26.888Z,40.01
2018-07-31T09:10:26.889Z,39.53
2018-07-31T09:11:26.894Z,40.41
2018-07-31T09:12:26.899Z,39.62
2018-07-31T09:13:26.903Z,39.35
2018-07-31T09:14:26.908Z,39.35
2018-07-31T09:15:26.917Z,39.15
2018-07-31T09:16:26.918Z,38.86
2018-07-31T09:17:26.950Z,39.45
2018-07-31T09:18:26.928Z,39.06
2018-07-31T09:19:26.934Z,39.35
2018-07-31T09:20:26.944Z,39.35
2018-07-31T09:21:26.945Z,39.25
2018-07-31T09:22:26.949Z,38.68
2018-07-31T09:23:26.956Z,38.98
2018-07-31T09:24:27.021Z,38.10
2018-07-31T09:25:26.969Z,37.81
2018-07-31T09:26:26.971Z,37.71
2018-07-31T09:27:26.978Z,37.51
2018-07-31T09:28:26.983Z,37.61
2018-07-31T09:29:26.991Z,37.41
2018-07-31T09:30:27.023Z,37.12
2018-07-31T09:31:27.001Z,37.41
2018-07-31T09:32:27.003Z,37.61
2018-07-31T09:33:27.009Z,36.82
2018-07-31T09:34:27.020Z,37.21
2018-07-31T09:35:27.027Z,37.51
2018-07-31T09:36:27.034Z,38.10
2018-07-31T09:37:27.029Z,38.29
2018-07-31T09:38:27.037Z,38.98
2018-07-31T09:39:27.047Z,38.59
2018-07-31T09:40:27.046Z,38.10
2018-07-31T09:41:27.058Z,38.51
2018-07-31T09:42:27.065Z,39.27
2018-07-31T09:43:27.069Z,39.47
2018-07-31T09:44:27.074Z,39.17
2018-07-31T09:45:27.075Z,39.37
2018-07-31T09:46:27.087Z,38.98
2018-07-31T09:47:27.087Z,39.56
2018-07-31T09:48:27.111Z,39.09
2018-07-31T09:49:27.099Z,38.21
2018-07-31T09:50:27.104Z,38.02
2018-07-31T09:51:27.110Z,38.12
2018-07-31T09:52:27.115Z,38.80
2018-07-31T09:53:27.126Z,38.90
2018-07-31T09:54:27.131Z,38.31
2018-07-31T09:55:27.138Z,38.53
2018-07-31T09:56:27.137Z,38.33
2018-07-31T09:57:27.143Z,38.04
2018-07-31T09:58:27.150Z,38.80
2018-07-31T09:59:27.155Z,39.07
2018-07-31T10:00:27.159Z,38.68
2018-07-31T10:01:27.172Z,39.27
2018-07-31T10:02:27.177Z,39.33
2018-07-31T10:03:27.184Z,39.92
2018-07-31T10:04:27.185Z,41.07
2018-07-31T10:05:27.195Z,41.29
2018-07-31T10:06:27.194Z,40.21
2018-07-31T10:07:27.205Z,39.74
2018-07-31T10:08:27.210Z,39.66
2018-07-31T10:09:27.212Z,39.76
2018-07-31T10:10:27.221Z,39.17
2018-07-31T10:11:27.229Z,39.17
2018-07-31T10:12:27.261Z,39.19
2018-07-31T10:13:27.233Z,38.51
2018-07-31T10:14:27.246Z,38.21
2018-07-31T10:15:27.247Z,38.33
2018-07-31T10:16:27.254Z,37.74
2018-07-31T10:17:27.256Z,38.04
2018-07-31T10:18:27.268Z,37.46
2018-07-31T10:19:27.269Z,37.56
2018-07-31T10:20:27.274Z,37.37
2018-07-31T10:21:27.284Z,37.58
2018-07-31T10:22:27.286Z,37.29
2018-07-31T10:23:27.292Z,36.60
2018-07-31T10:24:27.304Z,36.11
2018-07-31T10:25:27.308Z,36.03
2018-07-31T10:26:27.309Z,36.30
2018-07-31T10:27:27.322Z,35.83
2018-07-31T10:28:27.321Z,35.44
2018-07-31T10:29:27.332Z,35.34
2018-07-31T10:30:27.337Z,35.24
2018-07-31T10:31:27.347Z,35.05
2018-07-31T10:32:27.354Z,35.24
2018-07-31T10:33:27.354Z,35.24
2018-07-31T10:34:27.364Z,35.34
2018-07-31T10:35:27.372Z,35.44
2018-07-31T10:36:27.376Z,35.64
2018-07-31T10:37:27.425Z,35.05
2018-07-31T10:38:27.385Z,35.34
2018-07-31T10:39:27.392Z,35.34
2018-07-31T10:40:27.395Z,35.44
2018-07-31T10:41:27.408Z,36.99
2018-07-31T10:42:27.409Z,35.64
2018-07-31T10:43:27.417Z,35.14
2018-07-31T10:44:27.424Z,35.33
2018-07-31T10:45:27.431Z,35.03
2018-07-31T10:46:27.439Z,35.52
2018-07-31T10:47:27.449Z,36.21
2018-07-31T10:48:27.447Z,36.01
2018-07-31T10:49:27.454Z,35.82
2018-07-31T10:50:27.461Z,35.41
2018-07-31T10:51:27.469Z,36.19
2018-07-31T10:52:27.474Z,35.50
2018-07-31T10:53:27.484Z,35.11
2018-07-31T10:54:27.490Z,35.70
2018-07-31T10:55:27.498Z,35.52
2018-07-31T10:56:27.503Z,35.52
2018-07-31T10:57:27.510Z,35.05
2018-07-31T10:58:27.655Z,34.46
2018-07-31T10:59:27.523Z,34.06
2018-07-31T11:00:27.646Z,34.38
2018-07-31T11:01:27.533Z,34.28
2018-07-31T11:02:27.542Z,33.61
2018-07-31T11:03:27.545Z,31.74
2018-07-31T11:04:27.552Z,30.36
2018-07-31T11:05:27.565Z,30.27
2018-07-31T11:06:27.627Z,30.58
2018-07-31T11:07:27.573Z,29.89
2018-07-31T11:08:27.578Z,29.30
2018-07-31T11:09:27.588Z,29.11
2018-07-31T11:10:27.653Z,30.49
2018-07-31T11:11:27.597Z,29.90
2018-07-31T11:12:27.603Z,30.00
2018-07-31T11:13:27.617Z,30.10
2018-07-31T11:14:27.617Z,30.00
2018-07-31T11:15:27.626Z,29.90
2018-07-31T11:16:27.632Z,28.42
2018-07-31T11:17:27.644Z,27.25
2018-07-31T11:18:27.646Z,26.65
2018-07-31T11:19:27.657Z,26.65
2018-07-31T11:20:27.658Z,27.05
2018-07-31T11:21:27.670Z,26.57
2018-07-31T11:22:27.673Z,27.36
2018-07-31T11:23:27.680Z,28.36
2018-07-31T11:24:27.687Z,26.48
2018-07-31T11:25:27.696Z,26.19
2018-07-31T11:26:27.704Z,26.09
2018-07-31T11:27:27.745Z,25.01
2018-07-31T11:28:27.718Z,26.29
2018-07-31T11:29:27.724Z,25.40
2018-07-31T11:30:27.732Z,24.81
2018-07-31T11:31:27.738Z,25.31
2018-07-31T11:32:27.747Z,24.22
2018-07-31T11:33:27.752Z,23.63
2018-07-31T11:34:27.764Z,23.54
2018-07-31T11:35:27.770Z,24.04
2018-07-31T11:36:27.776Z,24.23
2018-07-31T11:37:27.784Z,23.94
2018-07-31T11:38:27.801Z,23.84
2018-07-31T11:39:27.798Z,25.81
2018-07-31T11:40:27.808Z,24.43
2018-07-31T11:41:27.820Z,24.33
2018-07-31T11:42:27.821Z,24.23
2018-07-31T11:43:27.830Z,24.23
2018-07-31T11:44:27.837Z,23.84
2018-07-31T11:45:27.847Z,23.84
2018-07-31T11:46:27.858Z,23.84
2018-07-31T11:47:27.860Z,24.64
2018-07-31T11:48:27.873Z,25.33
2018-07-31T11:49:27.880Z,23.75
2018-07-31T11:50:27.887Z,23.36
2018-07-31T11:51:27.892Z,23.16
2018-07-31T11:52:27.898Z,23.65
2018-07-31T11:53:27.906Z,24.64
2018-07-31T11:54:27.916Z,24.05
2018-07-31T11:55:27.928Z,24.24
2018-07-31T11:56:27.930Z,23.16
2018-07-31T11:57:27.938Z,23.07
2018-07-31T11:58:27.946Z,22.67
2018-07-31T11:59:27.954Z,23.86
2018-07-31T12:00:27.964Z,23.66
2018-07-31T12:01:27.970Z,23.37
2018-07-31T12:02:27.978Z,22.58
2018-07-31T12:03:27.987Z,22.47
2018-07-31T12:04:27.998Z,23.16
2018-07-31T12:05:28.001Z,22.86
2018-07-31T12:06:28.011Z,23.36
2018-07-31T12:07:28.020Z,22.96
2018-07-31T12:08:28.025Z,23.06
2018-07-31T12:09:28.034Z,23.26
2018-07-31T12:10:28.046Z,25.72
2018-07-31T12:11:28.070Z,24.15
2018-07-31T12:12:28.060Z,23.85
2018-07-31T12:13:28.066Z,23.85
2018-07-31T12:14:28.081Z,23.26
2018-07-31T12:15:28.088Z,23.75
2018-07-31T12:16:28.090Z,23.75
2018-07-31T12:17:28.104Z,23.27
2018-07-31T12:18:28.112Z,23.06
2018-07-31T12:19:28.116Z,23.47
2018-07-31T12:20:28.127Z,23.07
2018-07-31T12:21:28.137Z,22.97
2018-07-31T12:22:28.140Z,23.17
2018-07-31T12:23:28.151Z,24.35
2018-07-31T12:24:28.156Z,25.33
2018-07-31T12:25:28.165Z,23.46
2018-07-31T12:26:28.174Z,24.54
2018-07-31T12:27:28.180Z,22.56
2018-07-31T12:28:28.188Z,23.54
2018-07-31T12:29:28.198Z,24.24
2018-07-31T12:30:28.204Z,24.84
2018-07-31T12:31:28.223Z,23.55
2018-07-31T12:32:28.224Z,22.96
2018-07-31T12:33:28.231Z,23.07
2018-07-31T12:34:28.244Z,24.35
2018-07-31T12:35:28.250Z,24.06
2018-07-31T12:36:28.254Z,25.83
2018-07-31T12:37:28.262Z,25.43
2018-07-31T12:38:28.296Z,24.04
2018-07-31T12:39:28.281Z,23.63
2018-07-31T12:40:28.287Z,24.32
2018-07-31T12:41:28.296Z,24.22
2018-07-31T12:42:28.305Z,25.40
2018-07-31T12:43:28.311Z,26.09
2018-07-31T12:44:28.319Z,25.42
2018-07-31T12:45:28.331Z,26.20
2018-07-31T12:46:28.334Z,23.44
2018-07-31T12:47:28.348Z,22.96
2018-07-31T12:48:28.349Z,23.14
2018-07-31T12:49:28.359Z,23.73
2018-07-31T12:50:28.372Z,23.53
2018-07-31T12:51:28.379Z,23.83
2018-07-31T12:52:28.386Z,23.83